createdAt,value
2019-05-10T00:00:14.767Z,99637.38
2019-05-10T00:03:02.543Z,99638.69
2019-05-10T00:05:50.424Z,99645.99
2019-05-10T00:08:38.322Z,99653.23
2019-05-10T00:11:27.276Z,99654.23
2019-05-10T00:14:19.454Z,99618.52
2019-05-10T00:16:51.116Z,99653.50
2019-05-10T00:19:22.258Z,99655.55
2019-05-10T00:21:52.038Z,99660.06
2019-05-10T00:24:23.080Z,99658.70
2019-05-10T00:26:53.030Z,99659.74
2019-05-10T00:29:23.029Z,99662.26
2019-05-10T00:31:52.861Z,99660.48
2019-05-10T00:34:22.644Z,99666.78
2019-05-10T00:36:52.437Z,99661.27
2019-05-10T00:39:22.244Z,99672.07
2019-05-10T00:41:52.160Z,99671.24
2019-05-10T00:44:21.947Z,99668.04
2019-05-10T00:46:51.866Z,99671.13
2019-05-10T00:49:21.799Z,99674.27
2019-05-10T00:51:53.104Z,99676.27
2019-05-10T00:54:23.152Z,99677.62
2019-05-10T00:56:53.020Z,99675.52
2019-05-10T00:59:22.850Z,99668.34
2019-05-10T01:05:40.549Z,99678.94
2019-05-10T01:08:10.335Z,99682.77
2019-05-10T01:10:40.255Z,99690.19
2019-05-10T01:13:10.483Z,99690.59
2019-05-10T01:15:40.733Z,99691.59
2019-05-10T01:18:10.698Z,99696.05
2019-05-10T01:20:40.481Z,99693.17
2019-05-10T01:23:10.666Z,99689.02
2019-05-10T01:25:40.490Z,99699.05
2019-05-10T01:28:10.391Z,99692.53
2019-05-10T01:30:40.425Z,99695.75
2019-05-10T01:33:10.494Z,99702.94
2019-05-10T01:35:40.339Z,99698.16
2019-05-10T01:38:11.287Z,99701.20
2019-05-10T01:40:41.615Z,99707.66
2019-05-10T01:43:11.482Z,99713.17
2019-05-10T01:45:41.318Z,99712.05
2019-05-10T01:48:12.091Z,99709.38
2019-05-10T01:50:41.992Z,99709.85
2019-05-10T01:53:12.034Z,99706.70
2019-05-10T01:55:51.602Z,99709.59
2019-05-10T01:58:13.895Z,99715.27
2019-05-10T02:00:43.768Z,99712.64
2019-05-10T02:03:13.653Z,99726.39
2019-05-10T02:05:43.571Z,99723.09
2019-05-10T02:08:13.505Z,99726.23
2019-05-10T02:10:43.435Z,99727.23
2019-05-10T02:13:13.232Z,99730.38
2019-05-10T02:15:43.279Z,99724.17
2019-05-10T02:18:13.409Z,99726.91
2019-05-10T02:20:43.230Z,99734.36
2019-05-10T02:23:13.155Z,99736.99
2019-05-10T02:25:43.075Z,99733.98
2019-05-10T02:28:13.193Z,99730.55
2019-05-10T02:30:43.225Z,99733.64
2019-05-10T02:33:13.338Z,99735.26
2019-05-10T02:35:43.223Z,99738.88
2019-05-10T02:38:13.093Z,99744.91
2019-05-10T02:40:43.018Z,99740.36
2019-05-10T02:43:12.892Z,99740.73
2019-05-10T02:45:42.660Z,99742.87
2019-05-10T02:48:12.584Z,99740.14
2019-05-10T02:50:42.448Z,99750.87
2019-05-10T02:53:12.430Z,99751.50
2019-05-10T02:55:43.474Z,99756.06
2019-05-10T02:58:15.472Z,99757.59
2019-05-10T03:00:48.756Z,99757.59
2019-05-10T03:03:21.844Z,99761.27
2019-05-10T03:05:53.792Z,99762.38
2019-05-10T03:08:24.693Z,99768.58
2019-05-10T03:11:00.058Z,99770.52
2019-05-10T03:13:31.105Z,99765.47
2019-05-10T03:16:04.866Z,99765.84
2019-05-10T03:18:34.734Z,99771.26
2019-05-10T03:21:07.343Z,99774.55
2019-05-10T03:23:39.425Z,99770.88
2019-05-10T03:26:09.441Z,99776.66
2019-05-10T03:28:39.415Z,99784.97
2019-05-10T03:31:09.318Z,99784.59
2019-05-10T03:33:39.795Z,99784.86
2019-05-10T03:36:10.164Z,99788.74
2019-05-10T03:38:40.371Z,99789.37
2019-05-10T03:41:10.394Z,99783.69
2019-05-10T03:43:40.591Z,99790.58
2019-05-10T03:46:10.466Z,99784.28
2019-05-10T03:48:40.377Z,99788.84
2019-05-10T03:51:10.218Z,99797.77
2019-05-10T03:53:40.107Z,99791.20
2019-05-10T03:56:10.160Z,99794.94
2019-05-10T03:58:40.371Z,99799.34
2019-05-10T04:01:10.508Z,99801.22
2019-05-10T04:03:40.396Z,99800.07
2019-05-10T04:06:11.313Z,99803.96
2019-05-10T04:08:41.174Z,99807.90
2019-05-10T04:11:11.242Z,99811.84
2019-05-10T04:13:41.138Z,99812.26
2019-05-10T04:16:11.092Z,99819.09
2019-05-10T04:18:40.894Z,99825.39
2019-05-10T04:21:10.892Z,99824.77
2019-05-10T04:23:41.089Z,99829.70
2019-05-10T04:26:11.200Z,99829.23
2019-05-10T04:28:41.042Z,99835.16
2019-05-10T04:31:10.867Z,99840.31
2019-05-10T04:33:40.702Z,99841.89
2019-05-10T04:36:12.739Z,99841.67
2019-05-10T04:38:42.052Z,99842.88
2019-05-10T04:41:12.085Z,99846.34
2019-05-10T04:43:41.885Z,99852.38
2019-05-10T04:46:12.058Z,99857.69
2019-05-10T04:48:41.813Z,99863.42
2019-05-10T04:51:11.710Z,99865.73
2019-05-10T04:53:41.798Z,99871.68
2019-05-10T04:56:11.955Z,99867.38
2019-05-10T04:58:42.502Z,99875.72
2019-05-10T05:01:12.215Z,99880.39
2019-05-10T05:03:42.873Z,99884.80
2019-05-10T05:06:13.922Z,99885.48
2019-05-10T05:08:43.724Z,99886.76
2019-05-10T05:11:13.538Z,99883.34
2019-05-10T05:13:43.941Z,99881.48
2019-05-10T05:16:14.236Z,99889.84
2019-05-10T05:18:44.401Z,99893.17
2019-05-10T05:21:14.255Z,99891.22
2019-05-10T05:23:44.117Z,99893.30
2019-05-10T05:26:13.976Z,99898.28
2019-05-10T05:28:43.800Z,99888.35
2019-05-10T05:31:13.635Z,99891.78
2019-05-10T05:33:43.567Z,99889.02
2019-05-10T05:36:13.966Z,99898.39
2019-05-10T05:38:47.262Z,99902.08
2019-05-10T05:41:15.701Z,99908.19
2019-05-10T05:43:46.609Z,99900.81
2019-05-10T05:46:17.072Z,99916.48
2019-05-10T05:48:47.034Z,99914.66
2019-05-10T05:51:16.954Z,99881.23
2019-05-10T05:53:46.796Z,99917.59
2019-05-10T05:56:16.739Z,99917.16
2019-05-10T05:58:47.210Z,99910.74
2019-05-10T06:01:26.212Z,99908.11
2019-05-10T06:03:48.895Z,99907.42
2019-05-10T06:06:23.478Z,99916.25
2019-05-10T06:08:54.516Z,99912.86
2019-05-10T06:11:22.298Z,99913.73
2019-05-10T06:13:52.117Z,99920.28
2019-05-10T06:16:22.370Z,99916.25
2019-05-10T06:18:52.572Z,99925.43
2019-05-10T06:21:24.517Z,99926.25
2019-05-10T06:23:54.847Z,99926.25
2019-05-10T06:26:28.546Z,99927.67
2019-05-10T06:29:03.344Z,99934.16
2019-05-10T06:31:27.910Z,99943.44
2019-05-10T06:33:57.750Z,99947.55
2019-05-10T06:36:27.775Z,99946.36
2019-05-10T06:38:57.701Z,99950.26
2019-05-10T06:41:28.128Z,99949.98
2019-05-10T06:43:58.599Z,99948.00
2019-05-10T06:46:29.396Z,99952.64
2019-05-10T06:49:07.211Z,99954.44
2019-05-10T06:51:31.958Z,99957.23
2019-05-10T06:54:01.818Z,99962.16
2019-05-10T06:56:31.907Z,99959.27
2019-05-10T06:59:12.828Z,99969.02
2019-05-10T07:01:38.480Z,99961.58
2019-05-10T07:04:05.632Z,99969.31
2019-05-10T07:06:35.430Z,99970.56
2019-05-10T07:09:06.970Z,99966.52
2019-05-10T07:11:36.927Z,99961.41
2019-05-10T07:14:06.865Z,99967.08
2019-05-10T07:16:36.650Z,99963.61
2019-05-10T07:19:06.747Z,99963.08
2019-05-10T07:21:38.971Z,99970.63
2019-05-10T07:24:08.993Z,99964.80
2019-05-10T07:26:38.811Z,99973.69
2019-05-10T07:29:09.132Z,99976.16
2019-05-10T07:31:39.313Z,99976.86
2019-05-10T07:34:15.066Z,99977.50
2019-05-10T07:36:41.605Z,99977.31
2019-05-10T07:39:11.463Z,99983.82
2019-05-10T07:41:41.448Z,99982.07
2019-05-10T07:44:11.395Z,99985.82
2019-05-10T07:46:46.442Z,99987.40
2019-05-10T07:49:14.051Z,99978.83
2019-05-10T07:51:44.002Z,99993.19
2019-05-10T07:54:14.656Z,99984.25
2019-05-10T07:56:45.548Z,100004.50
2019-05-10T07:59:21.497Z,100007.97
2019-05-10T08:01:49.197Z,100010.65
2019-05-10T08:04:28.054Z,100010.91
2019-05-10T08:06:51.950Z,100007.12
2019-05-10T08:09:22.147Z,99976.63
2019-05-10T08:11:54.140Z,100008.61
2019-05-10T08:14:25.465Z,100013.06
2019-05-10T08:17:01.975Z,100019.02
2019-05-10T08:19:32.792Z,100025.37
2019-05-10T08:22:04.333Z,100021.37
2019-05-10T08:24:35.358Z,100028.20
2019-05-10T08:27:11.227Z,100029.83
2019-05-10T08:29:35.678Z,100036.58
2019-05-10T08:32:06.002Z,100042.48
2019-05-10T08:34:39.385Z,100040.83
2019-05-10T08:37:07.637Z,100048.00
2019-05-10T08:39:45.115Z,100049.93
2019-05-10T08:42:30.419Z,100058.62
2019-05-10T08:44:42.665Z,100062.73
2019-05-10T08:47:19.578Z,100069.04
2019-05-10T08:49:57.147Z,100065.78
2019-05-10T08:52:19.401Z,100072.66
2019-05-10T08:54:47.541Z,100073.32
2019-05-10T08:57:18.836Z,100081.79
2019-05-10T08:59:54.241Z,100075.11
2019-05-10T09:02:28.934Z,100083.87
2019-05-10T09:04:53.753Z,100082.78
2019-05-10T09:07:23.541Z,100093.11
2019-05-10T09:09:53.374Z,100090.17
2019-05-10T09:12:23.316Z,100096.97
2019-05-10T09:14:57.586Z,100102.72
2019-05-10T09:17:28.305Z,100107.25
2019-05-10T09:19:56.317Z,100110.03
2019-05-10T09:22:34.098Z,100107.17
2019-05-10T09:24:57.885Z,100119.48
2019-05-10T09:27:29.093Z,100122.91
2019-05-10T09:29:59.348Z,100120.91
2019-05-10T09:32:30.632Z,100130.85
2019-05-10T09:35:07.974Z,100135.20
2019-05-10T09:37:32.429Z,100145.70
2019-05-10T09:40:09.224Z,100147.71
2019-05-10T09:42:39.981Z,100155.69
2019-05-10T09:45:09.527Z,100164.86
2019-05-10T09:47:39.187Z,100164.41
2019-05-10T09:50:09.489Z,100164.29
2019-05-10T09:52:39.653Z,100172.55
2019-05-10T09:55:14.770Z,100170.62
2019-05-10T09:57:43.018Z,100173.81
2019-05-10T10:00:13.913Z,100176.86
2019-05-10T10:02:47.821Z,100179.37
2019-05-10T10:05:17.885Z,100183.22
2019-05-10T10:07:48.590Z,100199.16
2019-05-10T10:10:28.600Z,100191.94
2019-05-10T10:12:50.913Z,100211.94
2019-05-10T10:15:32.180Z,100222.36
2019-05-10T10:17:52.803Z,100219.41
2019-05-10T10:20:22.655Z,100225.84
2019-05-10T10:22:54.653Z,100220.44
2019-05-10T10:25:27.742Z,100229.98
2019-05-10T10:27:57.410Z,100229.94
2019-05-10T10:30:31.117Z,100226.23
2019-05-10T10:32:59.390Z,100224.21
2019-05-10T10:35:29.960Z,100225.20
2019-05-10T10:38:03.122Z,100230.35
2019-05-10T10:40:35.343Z,100234.34
2019-05-10T10:43:03.147Z,100240.69
2019-05-10T10:45:33.046Z,100233.30
2019-05-10T10:48:10.678Z,100243.13
2019-05-10T10:50:34.511Z,100232.17
2019-05-10T10:53:04.976Z,100229.44
2019-05-10T10:55:39.361Z,100229.31
2019-05-10T10:58:07.527Z,100235.92
2019-05-10T11:00:39.192Z,100242.27
2019-05-10T11:03:09.256Z,100232.26
2019-05-10T11:05:39.381Z,100236.69
2019-05-10T11:08:11.162Z,100232.25
2019-05-10T11:10:43.029Z,100236.53
2019-05-10T11:13:18.980Z,100243.51
2019-05-10T11:15:44.452Z,100251.27
2019-05-10T11:18:14.287Z,100249.09
2019-05-10T11:20:49.533Z,100252.52
2019-05-10T11:23:16.408Z,100263.20
2019-05-10T11:25:54.730Z,100265.36
2019-05-10T11:28:20.534Z,100267.09
2019-05-10T11:30:51.178Z,100271.82
2019-05-10T11:33:27.235Z,100276.97
2019-05-10T11:35:52.632Z,100267.47
2019-05-10T11:38:22.509Z,100274.16
2019-05-10T11:40:52.425Z,100272.20
2019-05-10T11:43:26.944Z,100284.47
2019-05-10T11:45:54.799Z,100293.75
2019-05-10T11:48:37.416Z,100298.52
2019-05-10T11:51:12.509Z,100298.40
2019-05-10T11:53:48.769Z,100297.72
2019-05-10T11:56:16.351Z,100314.72
2019-05-10T11:58:54.966Z,100317.06
2019-05-10T12:01:22.429Z,100328.45
2019-05-10T12:03:57.352Z,100325.01
2019-05-10T12:06:41.214Z,100320.23
2019-05-10T12:09:12.695Z,100325.86
2019-05-10T12:11:56.664Z,100327.67
2019-05-10T12:14:22.071Z,100329.80
2019-05-10T12:16:54.815Z,100328.75
2019-05-10T12:19:25.092Z,100324.94
2019-05-10T12:21:56.831Z,100330.09
2019-05-10T12:24:46.661Z,100326.28
2019-05-10T12:27:18.971Z,100334.55
2019-05-10T12:29:39.143Z,100330.05
2019-05-10T12:32:10.442Z,100342.53
2019-05-10T12:34:40.989Z,100341.68
2019-05-10T12:37:11.306Z,100335.10
2019-05-10T12:39:41.187Z,100342.12
2019-05-10T12:42:14.355Z,100338.56
2019-05-10T12:44:48.062Z,100344.25
2019-05-10T12:47:15.257Z,100339.93
2019-05-10T12:49:45.175Z,100344.22
2019-05-10T12:52:16.277Z,100338.41
2019-05-10T12:54:46.311Z,100345.03
2019-05-10T12:57:16.264Z,100346.81
2019-05-10T12:59:46.155Z,100353.08
2019-05-10T13:02:16.194Z,100350.14
2019-05-10T13:04:47.330Z,100350.58
2019-05-10T13:07:17.702Z,100358.81
2019-05-10T13:09:49.803Z,100348.62
2019-05-10T13:12:19.156Z,100365.50
2019-05-10T13:14:52.712Z,100369.39
2019-05-10T13:17:20.681Z,100360.17
2019-05-10T13:19:52.785Z,100362.71
2019-05-10T13:22:24.212Z,100356.30
2019-05-10T13:24:54.409Z,100366.00
2019-05-10T13:27:24.342Z,100369.53
2019-05-10T13:29:54.407Z,100375.29
2019-05-10T13:32:24.843Z,100374.09
2019-05-10T13:34:55.628Z,100376.16
2019-05-10T13:37:25.673Z,100378.52
2019-05-10T13:39:58.334Z,100383.69
2019-05-10T13:42:27.523Z,100385.92
2019-05-10T13:44:57.600Z,100380.76
2019-05-10T13:47:27.486Z,100393.03
2019-05-10T13:49:57.369Z,100386.80
2019-05-10T13:52:29.628Z,100393.80
2019-05-10T13:54:59.155Z,100393.20
2019-05-10T13:57:30.079Z,100388.53
2019-05-10T14:00:02.449Z,100394.89
2019-05-10T14:02:34.554Z,100394.17
2019-05-10T14:05:04.348Z,100401.98
2019-05-10T14:07:34.388Z,100408.23
2019-05-10T14:10:04.725Z,100405.38
2019-05-10T14:12:35.513Z,100409.01
2019-05-10T14:15:12.915Z,100389.14
2019-05-10T14:17:38.851Z,100423.03
2019-05-10T14:20:19.588Z,100416.45
2019-05-10T14:22:48.535Z,100414.78
2019-05-10T14:25:17.718Z,100422.66
2019-05-10T14:27:47.657Z,100425.94
2019-05-10T14:30:18.593Z,100422.01
2019-05-10T14:32:48.904Z,100422.28
2019-05-10T14:35:22.501Z,100421.16
2019-05-10T14:37:51.035Z,100418.58
2019-05-10T14:40:27.855Z,100421.31
2019-05-10T14:42:53.178Z,100415.05
2019-05-10T14:45:23.882Z,100413.39
2019-05-10T14:47:53.703Z,100419.38
2019-05-10T14:50:26.100Z,100417.03
2019-05-10T14:52:55.211Z,100426.20
2019-05-10T14:55:28.102Z,100430.87
2019-05-10T14:57:57.732Z,100424.85
2019-05-10T15:00:29.206Z,100430.92
2019-05-10T15:03:02.132Z,100438.22
2019-05-10T15:05:30.996Z,100441.05
2019-05-10T15:08:01.226Z,100441.16
2019-05-10T15:10:32.966Z,100443.27
2019-05-10T15:13:02.659Z,100454.13
2019-05-10T15:15:37.210Z,100455.28
2019-05-10T15:18:05.188Z,100450.84
2019-05-10T15:20:36.009Z,100452.36
2019-05-10T15:23:06.426Z,100454.17
2019-05-10T15:25:37.851Z,100450.36
2019-05-10T15:28:08.075Z,100457.86
2019-05-10T15:30:39.327Z,100450.23
2019-05-10T15:33:10.791Z,100445.26
2019-05-10T15:35:45.725Z,100453.72
2019-05-10T15:38:12.321Z,100455.25
2019-05-10T15:40:46.008Z,100450.56
2019-05-10T15:43:18.639Z,100459.47
2019-05-10T15:45:54.910Z,100467.72
2019-05-10T15:48:21.735Z,100460.61
2019-05-10T15:50:51.792Z,100459.58
2019-05-10T15:53:25.637Z,100460.80
2019-05-10T15:55:53.361Z,100467.85
2019-05-10T15:58:23.536Z,100468.33
2019-05-10T16:00:53.395Z,100467.23
2019-05-10T16:03:23.335Z,100481.02
2019-05-10T16:06:00.869Z,100483.20
2019-05-10T16:08:30.279Z,100487.11
2019-05-10T16:10:57.094Z,100488.81
2019-05-10T16:13:26.916Z,100489.98
2019-05-10T16:15:57.817Z,100486.48
2019-05-10T16:18:33.497Z,100492.41
2019-05-10T16:21:00.133Z,100492.60
2019-05-10T16:23:30.177Z,100487.45
2019-05-10T16:26:00.676Z,100486.19
2019-05-10T16:28:30.492Z,100483.83
2019-05-10T16:31:00.705Z,100481.29
2019-05-10T16:33:30.721Z,100486.67
2019-05-10T16:36:00.776Z,100486.67
2019-05-10T16:38:30.922Z,100486.22
2019-05-10T16:41:01.248Z,100487.80
2019-05-10T16:43:31.291Z,100494.00
2019-05-10T16:46:02.299Z,100488.98
2019-05-10T16:48:32.194Z,100488.42
2019-05-10T16:51:03.957Z,100490.69
2019-05-10T16:53:37.663Z,100493.78
2019-05-10T16:56:05.370Z,100505.13
2019-05-10T16:58:35.250Z,100502.14
2019-05-10T17:01:05.311Z,100496.84
2019-05-10T17:03:40.460Z,100499.31
2019-05-10T17:06:27.560Z,100494.99
2019-05-10T17:08:57.567Z,100504.66
2019-05-10T17:11:27.836Z,100507.80
2019-05-10T17:13:57.819Z,100509.73
2019-05-10T17:16:27.618Z,100512.06
2019-05-10T17:18:57.558Z,100516.78
2019-05-10T17:21:27.493Z,100519.75
2019-05-10T17:23:57.406Z,100513.62
2019-05-10T17:26:27.483Z,100511.20
2019-05-10T17:28:57.500Z,100512.38
2019-05-10T17:31:27.475Z,100511.17
2019-05-10T17:33:57.385Z,100517.29
2019-05-10T17:36:27.368Z,100521.39
2019-05-10T17:38:57.689Z,100524.34
2019-05-10T17:41:28.014Z,100520.18
2019-05-10T17:43:58.073Z,100521.34
2019-05-10T17:46:27.959Z,100516.31
2019-05-10T17:48:59.060Z,100520.56
2019-05-10T17:51:29.180Z,100522.27
2019-05-10T17:54:01.672Z,100522.70
2019-05-10T17:56:39.005Z,100530.93
2019-05-10T17:59:11.674Z,100537.02
2019-05-10T18:01:38.138Z,100535.14
2019-05-10T18:04:14.237Z,100534.62
2019-05-10T18:06:48.510Z,100485.16
2019-05-10T18:09:25.375Z,100530.88
2019-05-10T18:11:55.828Z,100526.81
2019-05-10T18:14:32.284Z,100521.41
2019-05-10T18:17:07.103Z,100521.25
2019-05-10T18:19:37.829Z,100523.66
2019-05-10T18:22:07.999Z,100525.32
2019-05-10T18:24:42.168Z,100525.34
2019-05-10T18:27:09.877Z,100521.52
2019-05-10T18:29:40.033Z,100531.65
2019-05-10T18:32:11.202Z,100528.61
2019-05-10T18:34:41.465Z,100535.59
2019-05-10T18:37:15.929Z,100527.81
2019-05-10T18:39:47.355Z,100528.20
2019-05-10T18:42:18.724Z,100528.98
2019-05-10T18:44:51.921Z,100531.36
2019-05-10T18:47:18.266Z,100534.27
2019-05-10T18:49:48.167Z,100539.45
2019-05-10T18:52:23.169Z,100543.20
2019-05-10T18:55:05.671Z,100544.20
2019-05-10T18:57:50.749Z,100537.11
2019-05-10T19:00:32.601Z,100543.67
2019-05-10T19:06:31.333Z,100544.04
2019-05-10T19:09:02.281Z,100540.09
2019-05-10T19:11:38.509Z,100546.28
2019-05-10T19:14:05.111Z,100551.28
2019-05-10T19:16:35.271Z,100560.63
2019-05-10T19:19:05.464Z,100567.55
2019-05-10T19:21:37.848Z,100568.53
2019-05-10T19:24:07.386Z,100572.07
2019-05-10T19:26:37.388Z,100577.03
2019-05-10T19:29:08.378Z,100573.87
2019-05-10T19:31:40.490Z,100573.74
2019-05-10T19:34:15.473Z,100575.25
2019-05-10T19:36:42.452Z,100580.41
2019-05-10T19:39:12.546Z,100585.56
2019-05-10T19:41:42.583Z,100580.00
2019-05-10T19:44:12.868Z,100587.80
2019-05-10T19:46:43.034Z,100584.42
2019-05-10T19:49:15.471Z,100585.39
2019-05-10T19:51:48.559Z,100584.62
2019-05-10T19:54:19.476Z,100586.12
2019-05-10T19:56:49.003Z,100587.49
2019-05-10T19:59:19.177Z,100587.23
2019-05-10T20:01:49.249Z,100587.61
2019-05-10T20:04:19.149Z,100592.39
2019-05-10T20:06:49.952Z,100591.38
2019-05-10T20:09:19.912Z,100587.59
2019-05-10T20:11:49.939Z,100586.56
2019-05-10T20:14:20.285Z,100583.91
2019-05-10T20:16:53.107Z,100586.80
2019-05-10T20:19:22.326Z,100586.91
2019-05-10T20:21:52.576Z,100589.14
2019-05-10T20:24:23.673Z,100596.69
2019-05-10T20:26:53.734Z,100594.53
2019-05-10T20:29:23.945Z,100600.47
2019-05-10T20:31:55.274Z,100598.95
2019-05-10T20:34:25.219Z,100604.92
2019-05-10T20:36:55.195Z,100605.53
2019-05-10T20:39:25.050Z,100603.88
2019-05-10T20:41:55.625Z,100606.51
2019-05-10T20:44:25.671Z,100613.52
2019-05-10T20:46:55.923Z,100615.97
2019-05-10T20:49:26.057Z,100618.76
2019-05-10T20:51:55.960Z,100627.65
2019-05-10T20:54:26.224Z,100632.55
2019-05-10T20:56:56.000Z,100636.97
2019-05-10T20:59:25.820Z,100635.94
2019-05-10T21:01:56.047Z,100638.45
2019-05-10T21:04:32.064Z,100648.44
2019-05-10T21:07:02.078Z,100640.75
2019-05-10T21:09:32.441Z,100641.73
2019-05-10T21:12:02.610Z,100638.52
2019-05-10T21:14:35.007Z,100627.01
2019-05-10T21:17:08.024Z,100628.42
2019-05-10T21:19:37.982Z,100625.33
2019-05-10T21:22:08.040Z,100627.41
2019-05-10T21:24:40.588Z,100622.58
2019-05-10T21:27:11.329Z,100624.07
2019-05-10T21:29:41.688Z,100629.71
2019-05-10T21:32:11.592Z,100623.70
2019-05-10T21:34:41.550Z,100622.94
2019-05-10T21:37:14.589Z,100625.99
2019-05-10T21:39:44.816Z,100634.40
2019-05-10T21:42:15.366Z,100639.88
2019-05-10T21:44:46.808Z,100639.96
2019-05-10T21:47:20.808Z,100637.88
2019-05-10T21:49:51.036Z,100637.54
2019-05-10T21:52:21.312Z,100634.42
2019-05-10T21:54:51.863Z,100643.63
2019-05-10T21:57:22.039Z,100636.64
2019-05-10T21:59:51.857Z,100641.45
2019-05-10T22:02:21.943Z,100645.52
2019-05-10T22:04:51.825Z,100635.02
2019-05-10T22:07:21.697Z,100640.17
2019-05-10T22:09:52.027Z,100630.58
2019-05-10T22:12:22.289Z,100626.55
2019-05-10T22:14:52.309Z,100625.15
2019-05-10T22:17:22.178Z,100621.72
2019-05-10T22:19:52.185Z,100622.55
2019-05-10T22:22:22.541Z,100625.78
2019-05-10T22:24:52.724Z,100628.05
2019-05-10T22:27:22.681Z,100623.50
2019-05-10T22:29:52.540Z,100615.82
2019-05-10T22:32:23.796Z,100627.80
2019-05-10T22:34:54.135Z,100623.50
2019-05-10T22:37:24.122Z,100617.91
2019-05-10T22:39:54.006Z,100620.77
2019-05-10T22:42:23.960Z,100616.20
2019-05-10T22:44:54.336Z,100613.88
2019-05-10T22:47:25.469Z,100617.66
2019-05-10T22:49:55.667Z,100620.82
2019-05-10T22:52:25.900Z,100626.95
2019-05-10T22:54:55.700Z,100627.45
2019-05-10T22:57:26.821Z,100621.29
2019-05-10T22:59:56.712Z,100620.13
2019-05-10T23:02:26.651Z,100618.23
2019-05-10T23:04:56.577Z,100614.65
2019-05-10T23:07:26.573Z,100613.19
2019-05-10T23:09:56.654Z,100620.28
2019-05-10T23:12:26.810Z,100613.63
2019-05-10T23:14:56.783Z,100613.26
2019-05-10T23:17:26.778Z,100619.39
2019-05-10T23:19:56.980Z,100631.20
2019-05-10T23:22:28.298Z,100626.23
2019-05-10T23:24:58.121Z,100629.09
2019-05-10T23:27:28.400Z,100625.02
2019-05-10T23:29:58.313Z,100619.45
2019-05-10T23:32:28.354Z,100616.63
2019-05-10T23:34:58.507Z,100613.19
2019-05-10T23:37:28.739Z,100607.13
2019-05-10T23:39:58.696Z,100608.28
2019-05-10T23:44:57.309Z,100619.28
2019-05-10T23:47:27.597Z,100622.83
2019-05-10T23:49:57.495Z,100619.02
2019-05-10T23:52:27.344Z,100620.29
2019-05-10T23:54:57.260Z,100618.87
2019-05-10T23:57:27.287Z,100617.28
2019-05-10T23:59:57.174Z,100615.45
